Time;durP1;ratioP1;P1;durP2;ratioP2;P2;SDS_P1;SDS_P2;PMS_P1;PMS_P2;Temp;Humidity;BMP_temperature;BMP_pressure;BME280_temperature;BME280_humidity;BME280_pressure;Samples;Min_cycle;Max_cycle;Signal;HPM_P1;HPM_P2
2021/12/18 00:01:53;;;;;;;18.60;4.47;;;;;;;;;;4996653;28;20109;-33
2021/12/18 00:04:19;;;;;;;23.02;4.45;;;;;;;;;;4995890;28;20054;-31
2021/12/18 00:06:45;;;;;;;29.55;7.68;;;;;;;;;;4996136;28;20045;-33
2021/12/18 00:09:12;;;;;;;30.75;4.18;;;;;;;;;;4996369;28;20034;-31
2021/12/18 00:11:38;;;;;;;35.28;5.43;;;;;;;;;;4996004;28;20019;-33
2021/12/18 00:14:04;;;;;;;27.48;3.95;;;;;;;;;;4996206;28;20060;-30
2021/12/18 00:16:30;;;;;;;29.15;4.45;;;;;;;;;;4996251;28;20415;-32
2021/12/18 00:18:58;;;;;;;22.58;4.45;;;;;;;;;;4996693;28;20050;-32
2021/12/18 00:21:25;;;;;;;34.35;4.55;;;;;;;;;;4995889;28;20109;-32
2021/12/18 00:23:52;;;;;;;32.45;4.00;;;;;;;;;;4995666;28;20026;-31
2021/12/18 00:26:19;;;;;;;37.50;5.70;;;;;;;;;;4996017;28;20038;-32
2021/12/18 00:28:47;;;;;;;28.30;4.32;;;;;;;;;;4996004;28;20022;-31
2021/12/18 00:31:14;;;;;;;26.90;4.20;;;;;;;;;;4995938;28;20104;-32
2021/12/18 00:33:40;;;;;;;23.02;4.18;;;;;;;;;;4995641;28;20034;-33
2021/12/18 00:36:06;;;;;;;21.67;3.80;;;;;;;;;;4996129;28;20030;-31
2021/12/18 00:38:32;;;;;;;27.08;5.07;;;;;;;;;;4995583;28;20352;-31
2021/12/18 00:41:13;;;;;;;24.95;3.90;;;;;;;;;;4995794;28;20041;-32
2021/12/18 00:44:01;;;;;;;30.67;3.80;;;;;;;;;;4996119;28;20049;-32
2021/12/18 00:46:26;;;;;;;25.50;4.45;;;;;;;;;;4995193;28;20269;-32
2021/12/18 00:48:53;;;;;;;22.98;4.13;;;;;;;;;;4995448;28;20030;-35
2021/12/18 00:51:19;;;;;;;30.67;5.70;;;;;;;;;;4995375;28;20533;-31
2021/12/18 00:53:45;;;;;;;27.50;4.90;;;;;;;;;;4995565;28;20030;-31
2021/12/18 00:56:12;;;;;;;27.90;3.83;;;;;;;;;;4995280;28;20031;-33
2021/12/18 00:58:38;;;;;;;19.60;3.08;;;;;;;;;;4995554;28;20113;-33
2021/12/18 01:01:08;;;;;;;23.60;4.65;;;;;;;;;;4995505;28;20416;-31
2021/12/18 01:03:36;;;;;;;25.60;4.50;;;;;;;;;;4994737;28;20429;-32
2021/12/18 01:06:02;;;;;;;21.92;3.75;;;;;;;;;;4995137;28;20077;-31
2021/12/18 01:08:28;;;;;;;23.75;4.20;;;;;;;;;;4995390;28;20041;-32
2021/12/18 01:11:21;;;;;;;22.55;4.13;;;;;;;;;;4995374;28;20042;-30
2021/12/18 01:16:34;;;;;;;15.50;4.65;;;;;;;;;;4995138;28;20089;-31
2021/12/18 01:24:30;;;;;;;34.78;5.50;;;;;;;;;;4995494;28;20041;-32
2021/12/18 01:26:56;;;;;;;22.17;4.07;;;;;;;;;;4994963;28;20027;-32
2021/12/18 01:29:23;;;;;;;27.30;4.72;;;;;;;;;;4995212;28;20109;-33
2021/12/18 01:31:49;;;;;;;24.02;3.55;;;;;;;;;;4995096;28;20034;-31
2021/12/18 01:34:15;;;;;;;23.23;4.40;;;;;;;;;;4994916;28;20057;-31
2021/12/18 01:36:43;;;;;;;20.27;3.97;;;;;;;;;;4994912;28;20034;-31
2021/12/18 01:39:09;;;;;;;26.90;4.63;;;;;;;;;;4995116;28;20100;-31
2021/12/18 01:41:52;;;;;;;26.85;3.63;;;;;;;;;;4994785;28;20030;-32
2021/12/18 01:52:37;;;;;;;19.30;4.65;;;;;;;;;;4994975;28;20076;-32
2021/12/18 01:55:04;;;;;;;37.97;6.28;;;;;;;;;;4994734;28;20030;-31
2021/12/18 01:57:31;;;;;;;23.73;3.80;;;;;;;;;;4994965;28;20042;-31
2021/12/18 01:59:58;;;;;;;18.55;3.90;;;;;;;;;;4994618;28;20045;-32
2021/12/18 02:02:24;;;;;;;24.20;3.78;;;;;;;;;;4994870;28;20041;-31
2021/12/18 02:04:51;;;;;;;18.23;3.38;;;;;;;;;;4994456;28;20070;-30
2021/12/18 02:07:17;;;;;;;21.77;4.75;;;;;;;;;;4994672;28;20046;-34
2021/12/18 02:12:22;;;;;;;17.42;3.00;;;;;;;;;;4994518;28;20022;-31
2021/12/18 02:20:26;;;;;;;10.98;2.92;;;;;;;;;;4998459;28;20049;-30
2021/12/18 02:22:56;;;;;;;16.75;3.25;;;;;;;;;;4998268;28;20095;-31
2021/12/18 02:25:23;;;;;;;16.83;4.40;;;;;;;;;;4998406;28;20077;-32
2021/12/18 02:27:51;;;;;;;22.58;2.92;;;;;;;;;;4998266;28;20096;-32
2021/12/18 02:30:20;;;;;;;18.95;4.13;;;;;;;;;;4998238;28;20072;-32
2021/12/18 02:32:47;;;;;;;16.60;4.68;;;;;;;;;;4997800;28;20053;-32
2021/12/18 02:35:23;;;;;;;15.93;3.25;;;;;;;;;;4997807;28;20034;-30
2021/12/18 02:37:49;;;;;;;17.85;3.50;;;;;;;;;;4998298;28;20026;-33
2021/12/18 02:40:55;;;;;;;11.85;3.30;;;;;;;;;;4998073;28;20027;-31
2021/12/18 02:43:36;;;;;;;32.83;3.83;;;;;;;;;;4997570;28;20109;-33
2021/12/18 02:46:06;;;;;;;27.33;4.22;;;;;;;;;;4997714;28;20358;-32
2021/12/18 02:48:34;;;;;;;18.17;3.92;;;;;;;;;;4998013;28;20373;-31
2021/12/18 02:51:00;;;;;;;18.45;3.80;;;;;;;;;;4997594;28;20037;-32
2021/12/18 02:53:27;;;;;;;16.77;2.95;;;;;;;;;;4980319;28;20037;-33
2021/12/18 02:55:54;;;;;;;17.10;4.80;;;;;;;;;;4997546;28;20101;-31
2021/12/18 02:58:20;;;;;;;21.20;4.00;;;;;;;;;;4997495;28;20030;-32
2021/12/18 03:00:48;;;;;;;21.70;3.97;;;;;;;;;;4997658;28;20117;-31
2021/12/18 03:03:15;;;;;;;15.63;3.75;;;;;;;;;;4997309;28;20042;-30
2021/12/18 03:05:53;;;;;;;10.98;3.58;;;;;;;;;;4997680;28;20065;-32
2021/12/18 03:08:33;;;;;;;16.35;4.53;;;;;;;;;;4997296;28;20031;-33
2021/12/18 03:27:22;;;;;;;10.40;2.47;;;;;;;;;;4996798;28;20092;-33
2021/12/18 03:29:49;;;;;;;10.80;3.80;;;;;;;;;;4996896;28;20061;-32
2021/12/18 03:32:16;;;;;;;27.40;4.03;;;;;;;;;;4996781;28;20094;-32
2021/12/18 03:34:42;;;;;;;21.42;3.08;;;;;;;;;;4997071;28;20354;-31
2021/12/18 03:37:09;;;;;;;12.85;3.58;;;;;;;;;;4996690;28;20128;-30
2021/12/18 03:39:35;;;;;;;17.58;4.22;;;;;;;;;;4979540;28;20077;-32
2021/12/18 03:42:02;;;;;;;20.20;4.95;;;;;;;;;;4997041;28;20382;-31
2021/12/18 03:44:28;;;;;;;11.57;2.60;;;;;;;;;;4996811;28;20402;-31
2021/12/18 03:46:55;;;;;;;13.73;3.35;;;;;;;;;;4979379;28;20030;-33
2021/12/18 03:49:21;;;;;;;11.50;3.38;;;;;;;;;;4996494;28;20054;-32
2021/12/18 03:51:47;;;;;;;20.75;3.70;;;;;;;;;;4996406;28;20033;-34
2021/12/18 03:54:13;;;;;;;28.38;3.90;;;;;;;;;;4996367;28;20038;-31
2021/12/18 03:56:40;;;;;;;12.88;3.00;;;;;;;;;;4996934;28;20088;-30
2021/12/18 03:59:06;;;;;;;14.40;2.60;;;;;;;;;;4996573;28;20354;-30
2021/12/18 04:01:32;;;;;;;16.38;4.35;;;;;;;;;;4996590;28;20038;-33
2021/12/18 04:03:59;;;;;;;14.00;3.50;;;;;;;;;;4996028;28;20422;-31
2021/12/18 04:06:25;;;;;;;13.10;3.17;;;;;;;;;;4996407;28;20026;-31
2021/12/18 04:08:51;;;;;;;15.50;3.05;;;;;;;;;;4996627;28;20031;-32
2021/12/18 04:11:17;;;;;;;6.35;2.53;;;;;;;;;;4996368;28;20026;-32
2021/12/18 04:13:46;;;;;;;14.35;3.63;;;;;;;;;;4996284;28;20393;-32
2021/12/18 04:16:13;;;;;;;10.25;2.80;;;;;;;;;;4996040;28;20030;-31
2021/12/18 04:18:39;;;;;;;12.88;4.50;;;;;;;;;;4996257;28;20030;-32
2021/12/18 04:21:05;;;;;;;11.98;3.45;;;;;;;;;;4995877;28;20050;-32
2021/12/18 04:23:32;;;;;;;8.90;2.58;;;;;;;;;;4995825;28;20019;-34
2021/12/18 04:25:58;;;;;;;13.95;3.33;;;;;;;;;;4996103;28;20022;-31
2021/12/18 04:28:24;;;;;;;16.85;2.90;;;;;;;;;;4995726;28;20030;-31
2021/12/18 04:30:51;;;;;;;7.05;2.55;;;;;;;;;;4995747;28;20092;-32
2021/12/18 04:33:17;;;;;;;15.93;3.42;;;;;;;;;;4995914;28;20030;-31
2021/12/18 04:35:43;;;;;;;19.67;2.90;;;;;;;;;;4995649;28;20030;-32
2021/12/18 04:38:10;;;;;;;10.55;2.95;;;;;;;;;;4995098;28;20026;-32
2021/12/18 04:40:36;;;;;;;16.38;2.80;;;;;;;;;;4995837;28;20033;-34
2021/12/18 04:43:04;;;;;;;11.40;2.55;;;;;;;;;;4995441;28;20390;-31
2021/12/18 04:45:30;;;;;;;9.50;2.05;;;;;;;;;;4978383;28;20445;-33
2021/12/18 04:47:56;;;;;;;11.23;2.50;;;;;;;;;;4978494;28;20027;-31
2021/12/18 04:50:23;;;;;;;14.15;2.83;;;;;;;;;;4995926;28;20045;-32
2021/12/18 04:52:50;;;;;;;10.32;2.63;;;;;;;;;;4979259;28;20456;-31
2021/12/18 04:55:16;;;;;;;14.15;2.97;;;;;;;;;;4995298;28;20029;-31
2021/12/18 04:57:43;;;;;;;10.65;3.67;;;;;;;;;;4995199;28;20446;-34
2021/12/18 05:00:10;;;;;;;9.18;2.60;;;;;;;;;;4995483;28;20026;-33
2021/12/18 05:02:40;;;;;;;7.45;3.05;;;;;;;;;;4995253;28;20029;-32
2021/12/18 05:05:08;;;;;;;12.20;3.42;;;;;;;;;;4994937;28;20042;-32
2021/12/18 05:07:34;;;;;;;10.98;2.83;;;;;;;;;;4995147;28;20089;-30
2021/12/18 05:10:00;;;;;;;10.80;2.40;;;;;;;;;;4977942;28;20454;-33
2021/12/18 05:12:27;;;;;;;16.33;2.63;;;;;;;;;;4994989;28;20512;-33
2021/12/18 05:14:53;;;;;;;11.98;2.58;;;;;;;;;;4995348;28;20498;-33
2021/12/18 05:17:19;;;;;;;12.40;2.70;;;;;;;;;;4995048;28;20034;-31
2021/12/18 05:19:45;;;;;;;8.55;3.22;;;;;;;;;;4995330;28;20037;-33
2021/12/18 05:22:11;;;;;;;14.45;2.67;;;;;;;;;;4995215;28;20366;-32
2021/12/18 05:24:38;;;;;;;9.40;3.05;;;;;;;;;;4994894;28;20041;-35
2021/12/18 05:27:04;;;;;;;14.93;3.13;;;;;;;;;;4977955;28;20181;-31
2021/12/18 05:29:30;;;;;;;7.70;2.80;;;;;;;;;;4995086;28;20041;-31
2021/12/18 05:31:57;;;;;;;18.38;2.60;;;;;;;;;;4995080;28;20026;-32
2021/12/18 05:34:25;;;;;;;11.63;2.47;;;;;;;;;;4994928;28;20125;-31
2021/12/18 05:39:19;;;;;;;15.88;2.80;;;;;;;;;;4995094;28;20446;-32
2021/12/18 05:41:46;;;;;;;29.77;3.13;;;;;;;;;;4994628;28;20069;-32
2021/12/18 05:44:12;;;;;;;24.73;3.55;;;;;;;;;;4994626;28;20030;-33
2021/12/18 05:46:38;;;;;;;11.38;2.88;;;;;;;;;;4994681;28;20014;-31
2021/12/18 05:49:04;;;;;;;18.35;3.15;;;;;;;;;;4994930;28;20057;-31
2021/12/18 05:51:31;;;;;;;17.58;2.78;;;;;;;;;;4997719;28;20477;-32
2021/12/18 05:53:58;;;;;;;12.80;2.60;;;;;;;;;;4981299;28;20042;-34
2021/12/18 05:56:24;;;;;;;13.93;2.85;;;;;;;;;;4999080;28;20372;-31
2021/12/18 05:58:50;;;;;;;9.75;3.22;;;;;;;;;;4998576;28;20034;-31
2021/12/18 06:01:18;;;;;;;7.97;2.80;;;;;;;;;;4998455;28;20026;-31
2021/12/18 06:03:45;;;;;;;15.75;3.95;;;;;;;;;;4998097;28;20057;-31
2021/12/18 06:06:11;;;;;;;23.35;3.50;;;;;;;;;;4998605;28;20022;-31
2021/12/18 06:08:38;;;;;;;12.45;3.75;;;;;;;;;;4998618;28;20035;-31
2021/12/18 06:11:10;;;;;;;9.65;2.58;;;;;;;;;;4998314;28;20093;-30
2021/12/18 06:13:36;;;;;;;15.13;2.15;;;;;;;;;;4998616;28;20028;-31
2021/12/18 06:16:05;;;;;;;11.57;3.63;;;;;;;;;;4998311;28;20041;-31
2021/12/18 06:18:33;;;;;;;22.95;5.38;;;;;;;;;;4998338;28;20057;-32
2021/12/18 06:20:59;;;;;;;15.05;2.85;;;;;;;;;;4998460;28;20061;-32
2021/12/18 06:23:25;;;;;;;34.35;3.05;;;;;;;;;;4998055;28;20122;-31
2021/12/18 06:25:52;;;;;;;21.90;3.85;;;;;;;;;;4998117;28;20045;-31
2021/12/18 06:28:18;;;;;;;10.63;2.83;;;;;;;;;;4998212;28;20038;-31
2021/12/18 06:30:44;;;;;;;13.50;2.97;;;;;;;;;;4998596;28;20038;-31
2021/12/18 06:33:10;;;;;;;9.45;2.70;;;;;;;;;;4997958;28;20346;-30
2021/12/18 06:35:37;;;;;;;14.73;3.20;;;;;;;;;;4998190;28;20050;-33
2021/12/18 06:38:03;;;;;;;14.32;2.92;;;;;;;;;;4997824;28;20038;-31
2021/12/18 06:40:29;;;;;;;14.98;2.92;;;;;;;;;;4980839;28;20101;-31
2021/12/18 06:42:55;;;;;;;10.27;3.55;;;;;;;;;;4997780;28;20022;-33
2021/12/18 06:45:22;;;;;;;15.35;2.80;;;;;;;;;;4997942;28;20113;-33
2021/12/18 06:47:48;;;;;;;21.02;4.45;;;;;;;;;;4997594;28;20169;-32
2021/12/18 06:50:14;;;;;;;13.85;2.95;;;;;;;;;;4997831;28;20113;-33
2021/12/18 06:52:40;;;;;;;17.63;2.75;;;;;;;;;;4997833;28;20339;-31
2021/12/18 06:55:07;;;;;;;21.80;2.85;;;;;;;;;;4997647;28;20026;-33
2021/12/18 06:57:33;;;;;;;15.20;2.92;;;;;;;;;;4997594;28;20026;-32
2021/12/18 06:59:59;;;;;;;21.65;3.88;;;;;;;;;;4997459;28;20026;-31
2021/12/18 07:02:26;;;;;;;14.35;2.45;;;;;;;;;;4996759;28;20529;-31
2021/12/18 07:04:52;;;;;;;19.92;3.10;;;;;;;;;;4997078;28;20042;-33
2021/12/18 07:07:18;;;;;;;21.95;4.43;;;;;;;;;;4997300;28;20361;-31
2021/12/18 07:09:45;;;;;;;22.73;4.90;;;;;;;;;;4997813;28;20023;-31
2021/12/18 07:12:11;;;;;;;16.10;3.95;;;;;;;;;;4997144;28;20022;-32
2021/12/18 07:14:38;;;;;;;17.10;3.67;;;;;;;;;;4997096;28;20058;-30
2021/12/18 07:17:05;;;;;;;10.75;2.28;;;;;;;;;;4997385;28;20093;-30
2021/12/18 07:19:32;;;;;;;11.15;2.85;;;;;;;;;;4997664;28;20357;-32
2021/12/18 07:21:58;;;;;;;26.70;3.95;;;;;;;;;;4980277;28;20421;-31
2021/12/18 07:24:24;;;;;;;19.38;4.30;;;;;;;;;;4996751;28;20037;-34
2021/12/18 07:26:50;;;;;;;15.00;3.25;;;;;;;;;;4996819;28;20030;-31
2021/12/18 07:29:17;;;;;;;18.67;3.35;;;;;;;;;;4996702;28;20050;-33
2021/12/18 07:31:43;;;;;;;17.13;3.22;;;;;;;;;;4996455;28;20026;-32
2021/12/18 07:34:09;;;;;;;18.02;3.72;;;;;;;;;;4979353;28;20030;-33
2021/12/18 07:36:35;;;;;;;29.13;3.15;;;;;;;;;;4979381;28;20462;-31
2021/12/18 07:39:03;;;;;;;40.72;4.72;;;;;;;;;;4996575;28;20026;-33
2021/12/18 07:41:29;;;;;;;24.25;4.45;;;;;;;;;;4996373;28;20105;-33
2021/12/18 07:43:55;;;;;;;18.50;3.90;;;;;;;;;;4996271;28;20022;-31
2021/12/18 07:46:22;;;;;;;28.42;5.43;;;;;;;;;;4996482;28;20054;-34
2021/12/18 07:48:48;;;;;;;33.28;4.32;;;;;;;;;;4996275;28;20026;-32
2021/12/18 07:51:14;;;;;;;39.35;3.95;;;;;;;;;;4996311;28;20482;-33
2021/12/18 07:53:41;;;;;;;35.45;5.03;;;;;;;;;;4996305;28;20034;-31
2021/12/18 07:56:09;;;;;;;38.92;4.85;;;;;;;;;;4996165;28;20089;-31
2021/12/18 07:58:36;;;;;;;36.50;4.00;;;;;;;;;;4996356;28;20347;-32
2021/12/18 08:01:02;;;;;;;21.02;4.57;;;;;;;;;;4996354;28;20168;-31
2021/12/18 08:03:29;;;;;;;31.90;4.40;;;;;;;;;;4995844;28;20472;-32
2021/12/18 08:05:55;;;;;;;26.48;3.28;;;;;;;;;;4996435;28;20077;-35
2021/12/18 08:08:21;;;;;;;24.80;2.65;;;;;;;;;;4978647;28;20057;-31
2021/12/18 08:10:48;;;;;;;29.75;2.97;;;;;;;;;;4995888;28;20034;-32
2021/12/18 08:13:14;;;;;;;20.77;2.85;;;;;;;;;;4995083;28;20026;-32
2021/12/18 08:15:40;;;;;;;30.83;3.40;;;;;;;;;;4995813;28;20026;-33
2021/12/18 08:18:07;;;;;;;22.60;3.08;;;;;;;;;;4995935;28;20085;-34
2021/12/18 08:20:35;;;;;;;33.10;4.18;;;;;;;;;;4995776;28;20048;-34
2021/12/18 08:23:01;;;;;;;22.00;3.40;;;;;;;;;;4995782;28;20022;-33
2021/12/18 08:25:28;;;;;;;24.63;6.45;;;;;;;;;;4978473;28;20034;-32
2021/12/18 08:27:59;;;;;;;22.73;3.78;;;;;;;;;;4995516;28;20057;-33
2021/12/18 08:30:27;;;;;;;38.45;5.32;;;;;;;;;;4996173;28;20354;-31
2021/12/18 08:32:53;;;;;;;53.65;5.03;;;;;;;;;;4995474;28;20081;-32
2021/12/18 08:35:19;;;;;;;51.03;5.28;;;;;;;;;;4995831;28;20058;-35
2021/12/18 08:37:46;;;;;;;36.83;4.68;;;;;;;;;;4995651;28;20061;-33
2021/12/18 08:40:13;;;;;;;23.52;3.33;;;;;;;;;;4995734;28;20053;-32
2021/12/18 08:42:39;;;;;;;25.00;2.90;;;;;;;;;;4995893;28;20034;-32
2021/12/18 08:45:06;;;;;;;32.90;3.70;;;;;;;;;;4995156;28;20026;-34
2021/12/18 08:47:32;;;;;;;24.98;3.75;;;;;;;;;;4995456;28;20037;-31
2021/12/18 08:49:58;;;;;;;39.55;3.38;;;;;;;;;;4995350;28;20027;-32
2021/12/18 08:52:25;;;;;;;37.63;4.95;;;;;;;;;;4995490;28;20034;-32
2021/12/18 08:54:51;;;;;;;51.92;4.93;;;;;;;;;;4995155;28;20026;-32
2021/12/18 08:57:18;;;;;;;23.50;3.88;;;;;;;;;;4995344;28;20039;-32
2021/12/18 08:59:44;;;;;;;28.33;3.80;;;;;;;;;;4995251;28;20038;-32
2021/12/18 09:02:11;;;;;;;23.00;4.43;;;;;;;;;;4995108;28;20033;-31
2021/12/18 09:04:38;;;;;;;30.23;3.70;;;;;;;;;;4994773;28;20042;-31
2021/12/18 09:07:05;;;;;;;28.48;3.38;;;;;;;;;;4994790;28;20035;-32
2021/12/18 09:09:31;;;;;;;34.13;5.13;;;;;;;;;;4995457;28;20018;-32
2021/12/18 09:11:58;;;;;;;27.13;5.13;;;;;;;;;;4995125;28;20025;-32
2021/12/18 09:14:24;;;;;;;31.80;3.78;;;;;;;;;;4994922;28;20089;-33
2021/12/18 09:16:52;;;;;;;68.82;6.97;;;;;;;;;;4994853;28;20461;-34
2021/12/18 09:19:18;;;;;;;38.92;6.28;;;;;;;;;;4994802;28;20026;-33
2021/12/18 09:21:45;;;;;;;37.72;3.90;;;;;;;;;;4994932;28;20034;-31
2021/12/18 09:24:11;;;;;;;27.02;4.35;;;;;;;;;;4994710;28;20472;-32
2021/12/18 09:26:37;;;;;;;23.35;3.85;;;;;;;;;;4994747;28;20446;-31
2021/12/18 09:29:03;;;;;;;28.60;3.85;;;;;;;;;;4994752;28;20022;-32
2021/12/18 09:31:30;;;;;;;17.88;3.33;;;;;;;;;;4994875;28;20042;-32
2021/12/18 09:33:56;;;;;;;28.88;4.60;;;;;;;;;;4994654;28;20026;-33
2021/12/18 09:36:22;;;;;;;33.38;3.90;;;;;;;;;;4994675;28;20031;-32
2021/12/18 09:38:49;;;;;;;37.72;4.65;;;;;;;;;;4995002;28;20022;-33
2021/12/18 09:41:15;;;;;;;35.95;4.97;;;;;;;;;;4995234;28;20055;-31
2021/12/18 09:43:41;;;;;;;42.35;7.88;;;;;;;;;;4994766;28;20402;-33
2021/12/18 09:46:09;;;;;;;35.60;4.28;;;;;;;;;;4994651;28;20030;-32
2021/12/18 09:48:37;;;;;;;22.98;3.30;;;;;;;;;;4994952;28;20069;-31
2021/12/18 09:51:07;;;;;;;28.77;3.92;;;;;;;;;;4994581;28;20048;-32
2021/12/18 09:53:34;;;;;;;32.60;4.33;;;;;;;;;;4995173;28;20034;-34
2021/12/18 09:56:00;;;;;;;37.55;3.88;;;;;;;;;;4994913;28;20273;-32
2021/12/18 09:58:26;;;;;;;31.02;5.45;;;;;;;;;;4994634;28;20454;-33
2021/12/18 10:00:52;;;;;;;37.30;5.35;;;;;;;;;;4994865;28;20035;-32
2021/12/18 10:03:19;;;;;;;56.58;6.35;;;;;;;;;;4994101;28;20080;-32
2021/12/18 10:05:45;;;;;;;28.17;5.97;;;;;;;;;;4994458;28;20057;-31
2021/12/18 10:08:18;;;;;;;39.63;6.50;;;;;;;;;;4994666;28;20033;-33
2021/12/18 10:10:58;;;;;;;46.60;5.32;;;;;;;;;;4994889;28;20022;-33
2021/12/18 10:13:24;;;;;;;37.42;6.18;;;;;;;;;;4994079;28;20030;-31
2021/12/18 10:16:10;;;;;;;33.05;4.28;;;;;;;;;;4994362;28;20082;-32
2021/12/18 10:18:36;;;;;;;38.58;5.65;;;;;;;;;;4994236;28;20026;-31
2021/12/18 10:21:10;;;;;;;33.72;4.60;;;;;;;;;;4994495;28;20027;-31
2021/12/18 10:23:37;;;;;;;31.52;3.92;;;;;;;;;;4994033;28;20069;-33
2021/12/18 10:26:03;;;;;;;26.15;3.55;;;;;;;;;;4994171;28;20026;-32
2021/12/18 10:28:42;;;;;;;26.50;3.90;;;;;;;;;;4994146;28;20045;-31
2021/12/18 10:31:08;;;;;;;24.77;3.83;;;;;;;;;;4994338;28;20178;-32
2021/12/18 10:33:35;;;;;;;31.58;4.47;;;;;;;;;;4994140;28;20038;-33
2021/12/18 10:36:02;;;;;;;27.15;3.55;;;;;;;;;;4994267;28;20030;-31
2021/12/18 10:38:47;;;;;;;24.27;4.75;;;;;;;;;;4997748;28;20105;-32
2021/12/18 10:41:30;;;;;;;26.50;6.50;;;;;;;;;;4997888;28;20034;-34
2021/12/18 10:43:56;;;;;;;23.60;4.75;;;;;;;;;;4997604;28;20372;-32
2021/12/18 10:46:22;;;;;;;37.03;5.65;;;;;;;;;;4997854;28;20026;-31
2021/12/18 10:49:03;;;;;;;27.20;5.35;;;;;;;;;;4997928;28;20030;-32
2021/12/18 10:51:30;;;;;;;49.47;5.03;;;;;;;;;;4997911;28;20033;-32
2021/12/18 10:54:04;;;;;;;41.70;5.80;;;;;;;;;;4997242;28;20026;-32
2021/12/18 10:56:34;;;;;;;36.55;4.38;;;;;;;;;;4997765;28;20403;-33
2021/12/18 10:59:01;;;;;;;43.15;4.95;;;;;;;;;;4997597;28;20041;-33
2021/12/18 11:01:28;;;;;;;59.53;8.32;;;;;;;;;;4997178;28;20030;-32
2021/12/18 11:03:54;;;;;;;55.80;6.70;;;;;;;;;;4996821;28;20060;-32
2021/12/18 11:06:21;;;;;;;45.80;6.05;;;;;;;;;;4997458;28;20399;-33
2021/12/18 11:08:59;;;;;;;29.90;5.00;;;;;;;;;;4997097;28;20109;-32
2021/12/18 11:14:06;;;;;;;25.20;3.80;;;;;;;;;;4997201;28;20528;-32
2021/12/18 11:16:35;;;;;;;24.90;4.60;;;;;;;;;;4997369;28;20069;-30
2021/12/18 11:19:03;;;;;;;51.25;5.03;;;;;;;;;;4996919;28;20022;-32
2021/12/18 11:21:30;;;;;;;45.53;6.45;;;;;;;;;;4997634;28;20121;-33
2021/12/18 11:24:07;;;;;;;20.42;4.35;;;;;;;;;;4996726;28;20361;-32
2021/12/18 11:26:41;;;;;;;38.15;5.47;;;;;;;;;;4997273;28;20024;-32
2021/12/18 11:29:11;;;;;;;24.17;4.18;;;;;;;;;;4996770;28;20110;-33
2021/12/18 11:31:38;;;;;;;21.42;6.07;;;;;;;;;;4997038;28;20037;-32
2021/12/18 11:34:06;;;;;;;47.13;4.80;;;;;;;;;;4996611;28;20038;-31
2021/12/18 11:36:33;;;;;;;29.42;4.50;;;;;;;;;;4996502;28;20041;-34
2021/12/18 11:39:00;;;;;;;35.13;5.10;;;;;;;;;;4996641;28;20033;-32
2021/12/18 11:41:26;;;;;;;32.70;4.25;;;;;;;;;;4996618;28;20470;-31
2021/12/18 11:43:53;;;;;;;34.75;4.30;;;;;;;;;;4996328;28;20358;-32
2021/12/18 11:46:31;;;;;;;40.33;4.70;;;;;;;;;;4996854;28;20034;-33
2021/12/18 11:48:59;;;;;;;32.00;4.45;;;;;;;;;;4996539;28;20030;-35
2021/12/18 11:51:26;;;;;;;47.95;5.40;;;;;;;;;;4996492;28;20104;-34
2021/12/18 11:53:52;;;;;;;51.72;4.93;;;;;;;;;;4996580;28;20378;-31
2021/12/18 11:56:19;;;;;;;32.65;3.85;;;;;;;;;;4996150;28;20472;-32
2021/12/18 11:58:46;;;;;;;30.55;4.75;;;;;;;;;;4996173;28;20149;-31
2021/12/18 12:01:15;;;;;;;32.85;5.20;;;;;;;;;;4996020;28;20500;-32
2021/12/18 12:03:47;;;;;;;35.10;4.80;;;;;;;;;;4995745;28;20133;-32
2021/12/18 12:06:13;;;;;;;;;;;;;;;;;;4996766;28;20041;-33
2021/12/18 12:08:41;;;;;;;40.33;4.13;;;;;;;;;;4996116;28;19910;-34
2021/12/18 12:11:15;;;;;;;32.08;5.32;;;;;;;;;;4996055;28;20022;-32
2021/12/18 12:14:00;;;;;;;40.75;4.60;;;;;;;;;;4996058;28;20054;-33
2021/12/18 12:16:47;;;;;;;41.92;5.85;;;;;;;;;;4996465;28;20053;-32
2021/12/18 12:19:18;;;;;;;31.65;5.10;;;;;;;;;;4996229;28;20034;-33
2021/12/18 12:21:51;;;;;;;34.42;5.63;;;;;;;;;;4996044;28;20038;-32
2021/12/18 12:24:22;;;;;;;24.75;4.25;;;;;;;;;;4995922;28;20026;-32
2021/12/18 12:26:49;;;;;;;47.80;5.63;;;;;;;;;;4996336;28;20030;-32
2021/12/18 12:29:16;;;;;;;45.50;4.78;;;;;;;;;;4996485;28;20034;-34
2021/12/18 12:32:01;;;;;;;29.75;4.38;;;;;;;;;;4995817;28;20026;-32
2021/12/18 12:34:33;;;;;;;34.03;4.20;;;;;;;;;;4995630;28;20057;-31
2021/12/18 12:37:18;;;;;;;41.22;4.57;;;;;;;;;;4995832;28;20022;-32
2021/12/18 12:39:59;;;;;;;31.33;4.07;;;;;;;;;;4995515;28;20365;-32
2021/12/18 12:42:26;;;;;;;27.48;4.82;;;;;;;;;;4995471;28;20484;-32
2021/12/18 12:45:01;;;;;;;31.17;4.97;;;;;;;;;;4978346;28;20030;-32
2021/12/18 12:47:28;;;;;;;43.97;6.07;;;;;;;;;;4995462;28;20022;-31
2021/12/18 12:49:59;;;;;;;33.15;3.97;;;;;;;;;;4995504;28;20491;-33
2021/12/18 12:52:26;;;;;;;;;;;;;;;;;;4996079;28;20030;-32
2021/12/18 12:55:02;;;;;;;38.35;5.65;;;;;;;;;;4978098;28;19921;-32
2021/12/18 12:57:30;;;;;;;28.33;5.07;;;;;;;;;;4995539;28;20357;-31
2021/12/18 12:59:59;;;;;;;36.80;5.38;;;;;;;;;;4994673;28;20045;-32
2021/12/18 13:02:26;;;;;;;41.50;5.68;;;;;;;;;;4995469;28;20027;-32
2021/12/18 13:05:02;;;;;;;39.50;4.78;;;;;;;;;;4994921;28;20058;-32
2021/12/18 13:07:28;;;;;;;52.75;5.95;;;;;;;;;;4995432;28;20023;-32
2021/12/18 13:09:54;;;;;;;47.30;6.93;;;;;;;;;;4978086;28;20038;-32
2021/12/18 13:12:20;;;;;;;44.22;6.22;;;;;;;;;;4978009;28;20405;-31
2021/12/18 13:14:47;;;;;;;39.22;4.55;;;;;;;;;;4995416;28;20034;-31
2021/12/18 13:17:17;;;;;;;46.65;5.55;;;;;;;;;;4995234;28;20212;-32
2021/12/18 13:19:54;;;;;;;41.40;4.30;;;;;;;;;;4995162;28;20117;-31
2021/12/18 13:22:26;;;;;;;30.20;3.88;;;;;;;;;;4995098;28;20403;-34
2021/12/18 13:25:06;;;;;;;32.53;4.25;;;;;;;;;;4995060;28;20113;-33
2021/12/18 13:27:34;;;;;;;35.03;3.67;;;;;;;;;;4995355;28;20092;-35
2021/12/18 13:30:10;;;;;;;32.58;4.65;;;;;;;;;;4995107;28;20026;-33
2021/12/18 13:32:36;;;;;;;25.92;4.05;;;;;;;;;;4995169;28;20069;-32
2021/12/18 13:35:12;;;;;;;28.85;4.22;;;;;;;;;;4995294;28;20037;-34
2021/12/18 13:37:38;;;;;;;47.97;4.55;;;;;;;;;;4995247;28;20041;-31
2021/12/18 13:40:14;;;;;;;37.55;4.68;;;;;;;;;;4995083;28;20034;-32
2021/12/18 13:42:40;;;;;;;29.38;3.67;;;;;;;;;;4995383;28;20038;-33
2021/12/18 13:45:07;;;;;;;29.00;4.63;;;;;;;;;;4994963;28;20372;-32
2021/12/18 13:47:38;;;;;;;28.60;4.68;;;;;;;;;;4994968;28;20378;-31
2021/12/18 13:50:14;;;;;;;25.13;3.60;;;;;;;;;;4995210;28;20110;-33
2021/12/18 13:52:43;;;;;;;37.03;6.15;;;;;;;;;;4995133;28;20041;-34
2021/12/18 13:55:33;;;;;;;25.05;4.07;;;;;;;;;;4995118;28;20457;-31
2021/12/18 13:58:02;;;;;;;26.85;3.47;;;;;;;;;;4978299;28;20528;-33
2021/12/18 14:00:29;;;;;;;17.20;3.53;;;;;;;;;;4995279;28;20034;-33
2021/12/18 14:02:55;;;;;;;29.55;3.60;;;;;;;;;;4994558;28;20030;-32
2021/12/18 14:05:22;;;;;;;26.50;3.53;;;;;;;;;;4995204;28;20512;-31
2021/12/18 14:07:48;;;;;;;31.17;3.90;;;;;;;;;;4995059;28;20089;-32
2021/12/18 14:10:14;;;;;;;21.05;3.17;;;;;;;;;;4994780;28;20488;-32
2021/12/18 14:12:41;;;;;;;27.55;4.28;;;;;;;;;;4997643;28;20058;-32
2021/12/18 14:15:17;;;;;;;35.70;6.05;;;;;;;;;;4998497;28;20346;-32
2021/12/18 14:17:43;;;;;;;32.78;4.50;;;;;;;;;;4998675;28;20030;-31
2021/12/18 14:20:11;;;;;;;26.23;3.30;;;;;;;;;;4998875;28;20031;-32
2021/12/18 14:22:38;;;;;;;17.27;4.25;;;;;;;;;;4998240;28;20050;-35
2021/12/18 14:25:11;;;;;;;27.17;4.80;;;;;;;;;;4998331;28;20109;-32
2021/12/18 14:27:55;;;;;;;28.05;3.65;;;;;;;;;;4998600;28;20362;-32
2021/12/18 14:30:32;;;;;;;28.20;6.07;;;;;;;;;;4981211;28;20054;-32
2021/12/18 14:33:12;;;;;;;28.85;3.75;;;;;;;;;;4998533;28;20438;-35
2021/12/18 14:35:56;;;;;;;30.05;4.20;;;;;;;;;;4999044;28;20464;-31
2021/12/18 14:38:26;;;;;;;23.70;3.53;;;;;;;;;;4998259;28;20027;-32
2021/12/18 14:41:03;;;;;;;24.48;4.00;;;;;;;;;;4997883;28;20079;-31
2021/12/18 14:43:30;;;;;;;27.67;5.07;;;;;;;;;;4997828;28;20089;-31
2021/12/18 14:45:56;;;;;;;40.92;4.13;;;;;;;;;;4980671;28;20465;-32
2021/12/18 14:48:30;;;;;;;31.27;5.65;;;;;;;;;;4998140;28;20057;-33
2021/12/18 14:50:56;;;;;;;20.13;4.10;;;;;;;;;;4997734;28;20061;-31
2021/12/18 14:53:24;;;;;;;29.67;3.50;;;;;;;;;;4997822;28;20027;-31
2021/12/18 14:55:57;;;;;;;34.30;4.72;;;;;;;;;;4997933;28;20386;-31
2021/12/18 14:58:26;;;;;;;26.23;3.45;;;;;;;;;;4997626;28;20097;-33
2021/12/18 15:01:06;;;;;;;19.80;3.65;;;;;;;;;;4997890;28;20081;-32
2021/12/18 15:03:35;;;;;;;31.55;2.72;;;;;;;;;;4997479;28;20046;-32
2021/12/18 15:06:09;;;;;;;22.92;4.88;;;;;;;;;;4980994;28;20339;-30
2021/12/18 15:08:51;;;;;;;18.15;2.67;;;;;;;;;;4997456;28;20037;-33
2021/12/18 15:11:18;;;;;;;26.63;3.60;;;;;;;;;;4997427;28;20035;-37
2021/12/18 15:13:55;;;;;;;28.48;4.40;;;;;;;;;;4997343;28;20061;-31
2021/12/18 15:16:24;;;;;;;22.35;3.65;;;;;;;;;;4997437;28;20105;-32
2021/12/18 15:18:50;;;;;;;24.30;5.07;;;;;;;;;;4997243;28;20444;-32
2021/12/18 15:21:17;;;;;;;27.38;3.58;;;;;;;;;;4997313;28;20027;-32
2021/12/18 15:23:44;;;;;;;19.13;3.45;;;;;;;;;;4996666;28;20019;-33
2021/12/18 15:26:10;;;;;;;28.23;4.93;;;;;;;;;;4997508;28;20030;-32